Thompson, Illinois
Current Conditions -  °F | °C
As of 11:55 AM on Thursday 30 Oct 2014 (Local Time) from KSFY Reporting Station
Broken Clouds Broken Clouds  
Wind Chill: 45°   Ceiling: 6000
Heat Index: 47°   Visibility: 10mi
Dew Point: 37°   Wind: 6mph
Humidity: 68%   Direction: 200°SSW
Pressure: 30.1"   Gusts: NA
Location:  41.9768°N, 90.0511°W
Report Text: KSFY 301655Z AUTO 20005KT 10SM BKN060 BKN100 09/03 A3010 RMK AO2 T00850028
Loading
Personal Weather Stations






























Interactive Weather Map
Tropical Storm Tracking
New forecast layout! Learn more

10-Day Weather Forecast

Advertisements
Track Severe Weather on mobile